createdAt,value
2018-02-12T00:02:12.340Z,4.17
2018-02-12T00:04:40.669Z,4.17
2018-02-12T00:07:09.165Z,4.20
2018-02-12T00:09:37.474Z,4.23
2018-02-12T00:12:05.799Z,4.18
2018-02-12T00:14:34.247Z,4.23
2018-02-12T00:17:03.466Z,4.13
2018-02-12T00:19:31.760Z,4.25
2018-02-12T00:22:00.175Z,4.17
2018-02-12T00:24:29.364Z,4.14
2018-02-12T00:26:57.665Z,4.18
2018-02-12T00:29:25.997Z,4.16
2018-02-12T00:31:54.360Z,4.15
2018-02-12T00:34:23.255Z,4.23
2018-02-12T00:36:51.746Z,4.25
2018-02-12T00:39:20.051Z,4.27
2018-02-12T00:41:48.373Z,4.22
2018-02-12T00:44:17.049Z,4.16
2018-02-12T00:46:45.362Z,4.14
2018-02-12T00:49:13.658Z,4.10
2018-02-12T00:51:42.301Z,4.07
2018-02-12T00:54:10.610Z,4.07
2018-02-12T00:56:39.061Z,4.16
2018-02-12T00:59:07.405Z,4.21
2018-02-12T01:01:35.700Z,4.21
2018-02-12T01:04:05.001Z,4.20
2018-02-12T01:06:33.433Z,4.26
2018-02-12T01:09:01.974Z,4.22
2018-02-12T01:11:30.592Z,4.21
2018-02-12T01:13:58.993Z,4.25
2018-02-12T01:16:27.388Z,4.18
2018-02-12T01:18:55.706Z,4.15
2018-02-12T01:21:23.997Z,4.17
2018-02-12T01:23:52.362Z,4.17
2018-02-12T01:26:20.673Z,4.05
2018-02-12T01:28:49.759Z,4.01
2018-02-12T01:31:18.999Z,3.96
2018-02-12T01:33:47.323Z,4.00
2018-02-12T01:36:15.618Z,3.94
2018-02-12T01:38:44.746Z,3.87
2018-02-12T01:41:13.063Z,3.80
2018-02-12T01:43:41.422Z,3.70
2018-02-12T01:46:09.740Z,3.67
2018-02-12T01:48:38.930Z,3.62
2018-02-12T01:51:08.068Z,3.49
2018-02-12T01:53:36.959Z,3.42
2018-02-12T01:56:05.334Z,3.26
2018-02-12T01:58:33.671Z,3.31
2018-02-12T02:01:02.014Z,3.25
2018-02-12T02:03:30.378Z,3.28
2018-02-12T02:05:58.915Z,3.19
2018-02-12T02:08:27.233Z,3.08
2018-02-12T02:10:55.543Z,3.07
2018-02-12T02:13:23.850Z,3.14
2018-02-12T02:15:52.285Z,3.21
2018-02-12T02:18:20.622Z,3.25
2018-02-12T02:20:48.914Z,3.16
2018-02-12T02:23:17.281Z,3.05
2018-02-12T02:25:45.591Z,3.15
2018-02-12T02:28:14.332Z,3.23
2018-02-12T02:30:42.654Z,3.26
2018-02-12T02:33:10.987Z,3.26
2018-02-12T02:35:39.310Z,3.11
2018-02-12T02:38:07.619Z,3.13
2018-02-12T02:40:35.933Z,3.08
2018-02-12T02:43:04.340Z,3.15
2018-02-12T02:45:32.787Z,3.13
2018-02-12T02:48:01.279Z,3.08
2018-02-12T02:50:29.578Z,3.10
2018-02-12T02:52:57.912Z,3.20
2018-02-12T02:55:26.427Z,3.25
2018-02-12T02:57:55.544Z,3.13
2018-02-12T03:00:24.641Z,3.12
2018-02-12T03:02:53.702Z,3.14
2018-02-12T03:05:22.026Z,3.13
2018-02-12T03:07:50.326Z,3.08
2018-02-12T03:10:18.719Z,3.26
2018-02-12T03:12:47.199Z,3.29
2018-02-12T03:15:23.917Z,3.29
2018-02-12T03:17:52.992Z,3.22
2018-02-12T03:20:21.288Z,3.26
2018-02-12T03:22:50.592Z,3.32
2018-02-12T03:25:19.724Z,3.33
2018-02-12T03:27:48.042Z,3.32
2018-02-12T03:30:16.580Z,3.20
2018-02-12T03:32:44.873Z,3.25
2018-02-12T03:35:13.198Z,3.20
2018-02-12T03:37:41.619Z,3.35
2018-02-12T03:40:09.925Z,3.43
2018-02-12T03:42:38.224Z,3.32
2018-02-12T03:45:07.498Z,3.23
2018-02-12T03:47:35.829Z,3.25
2018-02-12T03:50:04.146Z,3.19
2018-02-12T03:52:33.247Z,3.25
2018-02-12T03:55:01.537Z,3.09
2018-02-12T03:57:30.660Z,3.06
2018-02-12T03:59:59.354Z,3.10
2018-02-12T04:02:27.670Z,3.06
2018-02-12T04:04:56.108Z,2.99
2018-02-12T04:07:24.500Z,3.03
2018-02-12T04:09:52.823Z,3.06
2018-02-12T04:12:21.902Z,3.19
2018-02-12T04:14:50.234Z,3.21
2018-02-12T04:17:18.520Z,3.18
2018-02-12T04:19:46.960Z,3.09
2018-02-12T04:22:16.248Z,3.12
2018-02-12T04:24:45.330Z,3.13
2018-02-12T04:27:13.672Z,3.17
2018-02-12T04:29:42.883Z,3.02
2018-02-12T04:32:11.213Z,3.03
2018-02-12T04:34:39.526Z,3.00
2018-02-12T04:37:07.975Z,3.00
2018-02-12T04:39:36.392Z,2.93
2018-02-12T04:42:04.714Z,2.90
2018-02-12T04:44:33.771Z,3.05
2018-02-12T04:47:02.088Z,2.94
2018-02-12T04:49:30.400Z,2.93
2018-02-12T04:51:58.954Z,2.88
2018-02-12T04:54:28.137Z,2.84
2018-02-12T04:56:56.441Z,3.00
2018-02-12T04:59:24.748Z,2.83
2018-02-12T05:01:53.895Z,3.09
2018-02-12T05:04:22.192Z,2.97
2018-02-12T05:06:50.496Z,2.96
2018-02-12T05:09:18.937Z,3.09
2018-02-12T05:11:47.387Z,3.07
2018-02-12T05:14:16.592Z,3.05
2018-02-12T05:16:45.147Z,2.91
2018-02-12T05:19:13.486Z,3.00
2018-02-12T05:21:41.813Z,3.02
2018-02-12T05:24:11.017Z,2.96
2018-02-12T05:26:39.344Z,2.92
2018-02-12T05:29:07.662Z,3.04
2018-02-12T05:31:36.733Z,3.19
2018-02-12T05:34:05.202Z,3.16
2018-02-12T05:36:33.663Z,2.97
2018-02-12T05:39:02.048Z,2.89
2018-02-12T05:41:30.348Z,3.06
2018-02-12T05:46:33.148Z,3.06
2018-02-12T05:49:01.484Z,3.08
2018-02-12T05:51:29.899Z,3.08
2018-02-12T05:53:59.002Z,3.19
2018-02-12T05:56:27.471Z,3.01
2018-02-12T05:58:55.762Z,3.03
2018-02-12T06:01:24.858Z,3.06
2018-02-12T06:03:53.932Z,3.03
2018-02-12T06:06:22.260Z,2.99
2018-02-12T06:08:50.592Z,3.06
2018-02-12T06:11:18.947Z,2.98
2018-02-12T06:13:47.358Z,3.05
2018-02-12T06:16:16.453Z,2.98
2018-02-12T06:18:45.600Z,3.03
2018-02-12T06:21:13.922Z,3.05
2018-02-12T06:23:43.019Z,3.01
2018-02-12T06:26:12.366Z,3.00
2018-02-12T06:28:40.673Z,3.07
2018-02-12T06:31:10.501Z,3.03
2018-02-12T06:33:39.718Z,3.13
2018-02-12T06:36:08.123Z,3.12
2018-02-12T06:38:36.609Z,3.17
2018-02-12T06:41:04.915Z,3.02
2018-02-12T06:43:34.123Z,3.02
2018-02-12T06:46:02.445Z,3.03
2018-02-12T06:48:30.923Z,3.20
2018-02-12T06:50:59.300Z,3.27
2018-02-12T06:53:27.610Z,3.51
2018-02-12T06:55:55.937Z,3.42
2018-02-12T06:58:24.292Z,3.25
2018-02-12T07:00:53.382Z,3.43
2018-02-12T07:03:22.451Z,3.53
2018-02-12T07:05:50.783Z,3.56
2018-02-12T07:08:19.111Z,3.80
2018-02-12T07:10:47.410Z,3.50
2018-02-12T07:13:16.929Z,3.72
2018-02-12T07:15:45.346Z,3.47
2018-02-12T07:18:13.693Z,3.46
2018-02-12T07:20:42.007Z,3.32
2018-02-12T07:23:10.335Z,3.33
2018-02-12T07:25:39.733Z,3.53
2018-02-12T07:28:08.802Z,3.34
2018-02-12T07:30:37.133Z,3.40
2018-02-12T07:33:05.918Z,3.29
2018-02-12T07:35:34.234Z,3.32
2018-02-12T07:38:02.787Z,3.25
2018-02-12T07:40:31.131Z,3.51
2018-02-12T07:42:59.604Z,3.62
2018-02-12T07:45:28.868Z,3.53
2018-02-12T07:47:58.019Z,3.42
2018-02-12T07:50:26.434Z,3.06
2018-02-12T07:52:56.266Z,2.79
2018-02-12T07:55:24.919Z,2.66
2018-02-12T07:57:53.222Z,2.47
2018-02-12T08:00:21.550Z,2.58
2018-02-12T08:02:50.067Z,2.53
2018-02-12T08:05:18.407Z,2.74
2018-02-12T08:07:46.855Z,2.71
2018-02-12T08:10:15.950Z,2.95
2018-02-12T08:12:44.478Z,2.54
2018-02-12T08:15:12.941Z,2.53
2018-02-12T08:17:41.250Z,2.35
2018-02-12T08:20:09.624Z,2.02
2018-02-12T08:22:37.924Z,2.12
2018-02-12T08:25:06.256Z,2.21
2018-02-12T08:27:34.714Z,2.18
2018-02-12T08:30:03.859Z,2.48
2018-02-12T08:32:37.317Z,2.34
2018-02-12T08:35:05.635Z,2.64
2018-02-12T08:37:34.104Z,2.35
2018-02-12T08:40:02.561Z,2.33
2018-02-12T08:42:31.687Z,2.42
2018-02-12T08:45:00.080Z,2.30
2018-02-12T08:47:29.256Z,2.35
2018-02-12T08:49:58.272Z,2.25
2018-02-12T08:52:27.469Z,2.28
2018-02-12T08:54:56.635Z,2.27
2018-02-12T08:57:25.150Z,2.47
2018-02-12T08:59:54.320Z,2.78
2018-02-12T09:02:22.875Z,2.81
2018-02-12T09:04:51.198Z,2.91
2018-02-12T09:07:20.340Z,2.87
2018-02-12T09:09:49.444Z,3.01
2018-02-12T09:12:17.782Z,3.12
2018-02-12T09:14:46.230Z,3.08
2018-02-12T09:17:14.577Z,3.15
2018-02-12T09:19:42.881Z,3.06
2018-02-12T09:22:11.426Z,3.10
2018-02-12T09:24:39.762Z,3.06
2018-02-12T09:27:08.857Z,3.33
2018-02-12T09:29:37.191Z,3.28
2018-02-12T09:32:05.542Z,3.24
2018-02-12T09:34:33.969Z,3.33
2018-02-12T09:37:03.816Z,3.51
2018-02-12T09:39:32.279Z,3.25
2018-02-12T09:42:00.667Z,3.29
2018-02-12T09:44:29.177Z,3.26
2018-02-12T09:46:57.652Z,3.31
2018-02-12T09:49:26.215Z,3.41
2018-02-12T09:51:54.536Z,3.50
2018-02-12T09:54:23.668Z,3.51
2018-02-12T09:56:52.903Z,3.62
2018-02-12T09:59:21.371Z,3.81
2018-02-12T10:01:49.671Z,3.97
2018-02-12T10:04:18.027Z,3.79
2018-02-12T10:06:46.368Z,3.67
2018-02-12T10:09:15.516Z,4.05
2018-02-12T10:11:43.829Z,4.05
2018-02-12T10:14:12.300Z,4.47
2018-02-12T10:16:40.633Z,4.37
2018-02-12T10:19:09.015Z,4.30
2018-02-12T10:21:37.348Z,4.20
2018-02-12T10:24:05.698Z,4.33
2018-02-12T10:26:34.047Z,4.21
2018-02-12T10:29:02.503Z,4.06
2018-02-12T10:31:31.810Z,4.28
2018-02-12T10:34:00.324Z,4.24
2018-02-12T10:36:28.679Z,4.35
2018-02-12T10:38:57.031Z,4.17
2018-02-12T10:41:25.710Z,4.37
2018-02-12T10:43:54.143Z,4.35
2018-02-12T10:46:22.741Z,4.20
2018-02-12T10:48:51.821Z,3.78
2018-02-12T10:51:20.124Z,3.87
2018-02-12T10:53:48.630Z,3.60
2018-02-12T10:56:16.944Z,3.57
2018-02-12T10:58:45.442Z,3.47
2018-02-12T11:01:14.515Z,3.53
2018-02-12T11:03:42.862Z,3.44
2018-02-12T11:06:11.230Z,3.98
2018-02-12T11:08:39.620Z,4.18
2018-02-12T11:11:07.970Z,4.28
2018-02-12T11:13:37.148Z,4.24
2018-02-12T11:16:05.753Z,4.16
2018-02-12T11:18:34.827Z,4.13
2018-02-12T11:21:03.269Z,4.31
2018-02-12T11:23:31.837Z,4.37
2018-02-12T11:26:00.366Z,4.61
2018-02-12T11:28:28.936Z,4.66
2018-02-12T11:30:58.071Z,4.30
2018-02-12T11:33:27.159Z,4.12
2018-02-12T11:35:55.505Z,4.41
2018-02-12T11:40:51.477Z,4.79
2018-02-12T11:43:19.910Z,4.89
2018-02-12T11:45:48.318Z,4.95
2018-02-12T11:48:17.482Z,4.94
2018-02-12T11:50:45.817Z,4.81
2018-02-12T11:53:14.109Z,4.87
2018-02-12T11:55:42.659Z,4.90
2018-02-12T11:58:12.058Z,4.93
2018-02-12T12:00:40.379Z,5.07
2018-02-12T12:03:08.703Z,5.16
2018-02-12T12:05:37.859Z,5.35
2018-02-12T12:08:06.319Z,5.38
2018-02-12T12:10:34.867Z,5.05
2018-02-12T12:13:03.976Z,5.12
2018-02-12T12:15:32.530Z,5.53
2018-02-12T12:18:01.158Z,5.86
2018-02-12T12:20:29.500Z,5.81
2018-02-12T12:22:59.052Z,5.86
2018-02-12T12:25:27.392Z,5.55
2018-02-12T12:27:56.548Z,5.36
2018-02-12T12:30:24.925Z,5.33
2018-02-12T12:32:53.255Z,5.14
2018-02-12T12:35:21.593Z,5.35
2018-02-12T12:37:49.994Z,5.37
2018-02-12T12:40:18.309Z,5.04
2018-02-12T12:42:46.712Z,5.29
2018-02-12T12:45:16.689Z,5.42
2018-02-12T12:47:45.145Z,5.73
2018-02-12T12:50:14.236Z,6.15
2018-02-12T12:52:42.600Z,6.76
2018-02-12T12:55:11.705Z,7.00
2018-02-12T12:57:40.948Z,6.89
2018-02-12T13:00:09.521Z,6.11
2018-02-12T13:02:37.868Z,5.49
2018-02-12T13:05:06.964Z,5.27
2018-02-12T13:07:36.106Z,5.03
2018-02-12T13:10:04.493Z,4.83
2018-02-12T13:12:33.867Z,4.72
2018-02-12T13:15:02.959Z,4.76
2018-02-12T13:17:31.284Z,4.92
2018-02-12T13:20:00.379Z,4.88
2018-02-12T13:22:29.599Z,4.80
2018-02-12T13:24:58.018Z,4.73
2018-02-12T13:27:26.394Z,4.76
2018-02-12T13:29:54.732Z,4.89
2018-02-12T13:32:23.073Z,4.96
2018-02-12T13:34:51.539Z,5.10
2018-02-12T13:37:20.072Z,5.32
2018-02-12T13:39:48.386Z,6.58
2018-02-12T13:42:16.803Z,6.90
2018-02-12T13:44:47.866Z,6.70
2018-02-12T13:47:16.467Z,5.96
2018-02-12T13:49:45.567Z,5.79
2018-02-12T13:52:13.880Z,5.82
2018-02-12T13:54:42.227Z,5.64
2018-02-12T13:57:10.585Z,5.77
2018-02-12T13:59:39.073Z,5.71
2018-02-12T14:02:07.438Z,5.78
2018-02-12T14:04:35.815Z,5.83
2018-02-12T14:07:04.361Z,6.17
2018-02-12T14:09:32.673Z,6.87
2018-02-12T14:12:00.985Z,7.31
2018-02-12T14:14:29.294Z,7.77
2018-02-12T14:16:58.420Z,7.62
2018-02-12T14:19:26.901Z,7.51
2018-02-12T14:21:55.390Z,7.39
2018-02-12T14:24:23.738Z,7.77
2018-02-12T14:26:52.101Z,8.19
2018-02-12T14:29:21.450Z,8.60
2018-02-12T14:31:49.763Z,8.15
2018-02-12T14:34:18.214Z,7.78
2018-02-12T14:36:46.544Z,7.22
2018-02-12T14:39:15.290Z,6.53
2018-02-12T14:41:43.635Z,6.16
2018-02-12T14:44:12.055Z,6.00
2018-02-12T14:46:40.381Z,5.81
2018-02-12T14:49:08.703Z,6.14
2018-02-12T14:51:37.222Z,6.70
2018-02-12T14:54:05.609Z,6.94
2018-02-12T14:56:34.056Z,6.97
2018-02-12T14:59:02.560Z,7.08
2018-02-12T15:01:30.871Z,6.54
2018-02-12T15:03:59.747Z,6.78
2018-02-12T15:06:28.552Z,6.38
2018-02-12T15:08:57.051Z,6.05
2018-02-12T15:11:25.952Z,6.06
2018-02-12T15:13:54.476Z,6.06
2018-02-12T15:16:22.944Z,6.14
2018-02-12T15:18:51.475Z,6.29
2018-02-12T15:21:20.595Z,6.63
2018-02-12T15:23:50.402Z,6.47
2018-02-12T15:26:18.957Z,6.54
2018-02-12T15:28:48.580Z,6.39
2018-02-12T15:31:17.774Z,6.04
2018-02-12T15:33:47.218Z,5.65
2018-02-12T15:36:16.238Z,5.36
2018-02-12T15:38:44.618Z,5.16
2018-02-12T15:41:13.580Z,5.11
2018-02-12T15:43:42.762Z,5.16
2018-02-12T15:46:11.595Z,5.16
2018-02-12T15:48:40.139Z,5.00
2018-02-12T15:51:08.558Z,4.89
2018-02-12T15:53:37.242Z,4.89
2018-02-12T15:56:05.561Z,4.79
2018-02-12T15:58:35.429Z,4.90
2018-02-12T16:01:03.890Z,5.01
2018-02-12T16:03:32.365Z,4.96
2018-02-12T16:06:01.570Z,4.83
2018-02-12T16:08:30.041Z,4.84
2018-02-12T16:10:58.462Z,4.71
2018-02-12T16:13:26.978Z,4.75
2018-02-12T16:15:55.523Z,4.81
2018-02-12T16:18:23.972Z,4.84
2018-02-12T16:20:52.443Z,4.75
2018-02-12T16:23:20.785Z,4.63
2018-02-12T16:25:49.207Z,4.59
2018-02-12T16:28:17.625Z,4.50
2018-02-12T16:30:47.448Z,4.51
2018-02-12T16:33:16.654Z,4.47
2018-02-12T16:35:45.211Z,4.43
2018-02-12T16:38:13.925Z,4.42
2018-02-12T16:40:42.545Z,4.39
2018-02-12T16:43:11.048Z,4.30
2018-02-12T16:45:39.437Z,4.21
2018-02-12T16:48:07.837Z,4.13
2018-02-12T16:50:36.783Z,4.06
2018-02-12T16:53:05.158Z,4.12
2018-02-12T16:55:33.540Z,4.00
2018-02-12T16:58:02.096Z,4.00
2018-02-12T17:00:30.425Z,4.00
2018-02-12T17:02:59.979Z,4.01
2018-02-12T17:05:28.338Z,4.01
2018-02-12T17:07:56.663Z,3.95
2018-02-12T17:10:25.840Z,3.90
2018-02-12T17:12:54.324Z,3.94
2018-02-12T17:15:22.644Z,3.81
2018-02-12T17:17:50.974Z,3.78
2018-02-12T17:20:19.315Z,3.78
2018-02-12T17:22:47.950Z,3.69
2018-02-12T17:25:16.336Z,3.94
2018-02-12T17:27:44.678Z,3.92
2018-02-12T17:30:13.084Z,3.75
2018-02-12T17:32:41.434Z,3.63
2018-02-12T17:35:09.760Z,3.87
2018-02-12T17:37:38.088Z,3.84
2018-02-12T17:40:06.813Z,3.89
2018-02-12T17:42:35.154Z,3.73
2018-02-12T17:45:03.483Z,3.73
2018-02-12T17:47:32.728Z,3.77
2018-02-12T17:50:01.252Z,3.67
2018-02-12T17:52:29.589Z,3.66
2018-02-12T17:54:57.950Z,3.54
2018-02-12T17:57:26.497Z,3.74
2018-02-12T17:59:56.246Z,3.43
2018-02-12T18:02:25.449Z,3.53
2018-02-12T18:04:54.437Z,3.50
2018-02-12T18:07:23.704Z,3.02
2018-02-12T18:09:52.529Z,3.10
2018-02-12T18:12:22.326Z,3.02
2018-02-12T18:14:51.267Z,2.85
2018-02-12T18:17:20.180Z,2.91
2018-02-12T18:19:49.325Z,2.67
2018-02-12T18:22:18.147Z,2.75
2018-02-12T18:24:50.825Z,2.73
2018-02-12T18:27:19.878Z,2.69
2018-02-12T18:29:48.353Z,2.47
2018-02-12T18:32:18.857Z,2.57
2018-02-12T18:34:47.484Z,2.61
2018-02-12T18:37:16.196Z,2.41
2018-02-12T18:39:45.845Z,2.31
2018-02-12T18:42:14.709Z,2.38
2018-02-12T18:44:44.802Z,2.23
2018-02-12T18:47:13.479Z,2.04
2018-02-12T18:49:42.080Z,2.40
2018-02-12T18:52:11.594Z,2.05
2018-02-12T18:54:40.039Z,2.46
2018-02-12T18:57:08.870Z,2.32
2018-02-12T18:59:37.809Z,2.27
2018-02-12T19:02:06.433Z,2.19
2018-02-12T19:04:35.816Z,2.44
2018-02-12T19:07:04.550Z,2.37
2018-02-12T19:09:33.208Z,2.10
2018-02-12T19:12:01.985Z,2.33
2018-02-12T19:14:31.426Z,2.12
2018-02-12T19:17:05.209Z,2.07
2018-02-12T19:19:33.904Z,1.80
2018-02-12T19:22:03.064Z,1.60
2018-02-12T19:24:31.997Z,1.58
2018-02-12T19:27:00.639Z,1.59
2018-02-12T19:29:29.970Z,1.56
2018-02-12T19:31:59.079Z,1.57
2018-02-12T19:34:27.963Z,1.61
2018-02-12T19:36:58.784Z,1.63
2018-02-12T19:39:27.630Z,1.48
2018-02-12T19:41:56.551Z,1.53
2018-02-12T19:44:26.609Z,1.62
2018-02-12T19:46:56.018Z,1.42
2018-02-12T19:49:25.560Z,1.44
2018-02-12T19:51:55.693Z,1.47
2018-02-12T19:54:25.211Z,1.54
2018-02-12T19:56:53.992Z,1.77
2018-02-12T19:59:23.318Z,1.54
2018-02-12T20:01:53.125Z,1.54
2018-02-12T20:04:23.777Z,1.56
2018-02-12T20:06:54.088Z,1.34
2018-02-12T20:09:23.348Z,1.44
2018-02-12T20:11:52.458Z,1.50
2018-02-12T20:14:22.085Z,1.47
2018-02-12T20:16:50.876Z,1.40
2018-02-12T20:19:20.676Z,1.34
2018-02-12T20:21:50.699Z,1.34
2018-02-12T20:24:20.278Z,1.33
2018-02-12T20:26:49.451Z,1.41
2018-02-12T20:29:18.349Z,1.18
2018-02-12T20:31:47.024Z,1.22
2018-02-12T20:34:15.633Z,1.29
2018-02-12T20:36:44.332Z,1.34
2018-02-12T20:39:17.966Z,1.35
2018-02-12T20:41:47.035Z,1.31
2018-02-12T20:44:16.454Z,1.35
2018-02-12T20:46:45.214Z,1.37
2018-02-12T20:49:14.095Z,1.20
2018-02-12T20:51:42.559Z,1.24
2018-02-12T20:54:11.142Z,1.31
2018-02-12T20:56:39.826Z,1.39
2018-02-12T20:59:08.785Z,1.46
2018-02-12T21:01:37.896Z,1.57
2018-02-12T21:04:06.924Z,1.48
2018-02-12T21:06:35.446Z,1.50
2018-02-12T21:09:03.939Z,1.40
2018-02-12T21:11:32.779Z,1.37
2018-02-12T21:14:01.237Z,1.27
2018-02-12T21:16:30.658Z,1.41
2018-02-12T21:18:59.545Z,1.25
2018-02-12T21:21:28.666Z,1.39
2018-02-12T21:23:57.440Z,1.54
2018-02-12T21:26:26.219Z,1.67
2018-02-12T21:28:54.990Z,1.55
2018-02-12T21:31:23.762Z,1.65
2018-02-12T21:33:52.732Z,1.62
2018-02-12T21:36:22.290Z,1.53
2018-02-12T21:38:51.064Z,1.71
2018-02-12T21:41:20.275Z,1.63
2018-02-12T21:43:48.955Z,1.60
2018-02-12T21:46:18.255Z,1.71
2018-02-12T21:48:46.792Z,1.62
2018-02-12T21:51:15.563Z,1.64
2018-02-12T21:53:44.111Z,1.56
2018-02-12T21:56:13.201Z,1.48
2018-02-12T21:58:42.911Z,1.45
2018-02-12T22:03:46.149Z,1.31
2018-02-12T22:06:15.877Z,1.35
2018-02-12T22:08:44.660Z,1.29
2018-02-12T22:11:14.047Z,1.29
2018-02-12T22:13:43.264Z,1.31
2018-02-12T22:16:11.653Z,1.18
2018-02-12T22:18:40.190Z,1.33
2018-02-12T22:21:08.524Z,1.40
2018-02-12T22:23:36.859Z,1.53
2018-02-12T22:26:05.208Z,1.56
2018-02-12T22:28:33.692Z,1.51
2018-02-12T22:31:02.169Z,1.49
2018-02-12T22:33:30.688Z,1.68
2018-02-12T22:35:59.113Z,1.65
2018-02-12T22:38:27.585Z,1.67
2018-02-12T22:40:55.894Z,1.68
2018-02-12T22:43:24.247Z,1.87
2018-02-12T22:45:52.572Z,1.79
2018-02-12T22:48:21.008Z,1.62
2018-02-12T22:50:49.386Z,1.56
2018-02-12T22:53:17.746Z,1.61
2018-02-12T22:55:46.093Z,1.87
2018-02-12T22:58:15.170Z,1.78
2018-02-12T23:00:44.315Z,1.63
2018-02-12T23:03:12.661Z,1.63
2018-02-12T23:05:41.737Z,1.59
2018-02-12T23:08:11.046Z,1.61
2018-02-12T23:10:39.535Z,1.50
2018-02-12T23:13:07.916Z,1.44
2018-02-12T23:15:37.016Z,1.54
2018-02-12T23:18:06.138Z,1.44
2018-02-12T23:20:34.478Z,1.46
2018-02-12T23:23:02.807Z,1.53
2018-02-12T23:25:31.185Z,1.47
2018-02-12T23:27:59.496Z,1.37
2018-02-12T23:30:28.792Z,1.39
2018-02-12T23:32:58.070Z,1.46
2018-02-12T23:35:26.624Z,1.56
2018-02-12T23:37:54.943Z,1.58
2018-02-12T23:40:24.106Z,1.59
2018-02-12T23:42:52.467Z,1.55
2018-02-12T23:45:20.773Z,1.51
2018-02-12T23:47:49.126Z,1.60
2018-02-12T23:50:17.539Z,1.56
2018-02-12T23:52:45.997Z,1.53
2018-02-12T23:55:14.563Z,1.45
2018-02-12T23:57:42.900Z,1.52
